Time;durP1;ratioP1;P1;durP2;ratioP2;P2;SDS_P1;SDS_P2;PMS_P1;PMS_P2;Temp;Humidity;BMP_temperature;BMP_pressure;BME280_temperature;BME280_humidity;BME280_pressure;Samples;Min_cycle;Max_cycle;Signal;HPM_P1;HPM_P2
2022/06/19 00:02:01;;;;;;;6.10;1.27;;;15.80;99.80;;;;;;5040817;28;20429;-29
2022/06/19 00:04:27;;;;;;;5.82;0.88;;;15.80;99.90;;;;;;5039599;28;20053;-30
2022/06/19 00:06:56;;;;;;;6.70;0.93;;;15.80;99.90;;;;;;5041940;28;20112;-28
2022/06/19 00:09:22;;;;;;;5.60;1.20;;;15.70;99.90;;;;;;5035084;28;20469;-30
2022/06/19 00:11:48;;;;;;;6.50;1.05;;;15.80;99.90;;;;;;5047640;28;20033;-31
2022/06/19 00:14:14;;;;;;;15.57;1.73;;;15.80;99.90;;;;;;5043188;28;20070;-32
2022/06/19 00:16:39;;;;;;;9.95;1.10;;;15.70;99.90;;;;;;5043297;28;20021;-28
2022/06/19 00:19:05;;;;;;;11.60;1.50;;;15.70;99.90;;;;;;5048302;28;20036;-29
2022/06/19 00:21:31;;;;;;;8.23;1.67;;;15.70;99.90;;;;;;5039069;28;20064;-33
2022/06/19 00:23:57;;;;;;;5.70;1.63;;;15.70;99.90;;;;;;5036618;28;20112;-33
2022/06/19 00:29:07;;;;;;;3.55;0.68;;;15.70;99.90;;;;;;5051628;28;20406;-30
2022/06/19 00:31:33;;;;;;;3.70;1.55;;;15.80;99.90;;;;;;5052760;28;20018;-30
2022/06/19 00:33:58;;;;;;;3.67;1.42;;;15.80;99.90;;;;;;5037222;28;20500;-29
2022/06/19 00:36:26;;;;;;;7.30;1.10;;;15.80;99.90;;;;;;5036029;28;20477;-29
2022/06/19 00:38:52;;;;;;;6.20;1.05;;;15.80;99.90;;;;;;5046915;28;20480;-28
2022/06/19 00:41:19;;;;;;;3.03;1.05;;;15.80;99.90;;;;;;5052625;28;20392;-46
2022/06/19 00:43:56;;;;;;;5.43;1.20;;;15.90;99.90;;;;;;5047452;28;20477;-38
2022/06/19 00:46:48;;;;;;;7.25;0.98;;;15.80;99.90;;;;;;5048387;28;20106;-36
2022/06/19 00:49:19;;;;;;;7.32;1.45;;;15.70;99.90;;;;;;5032652;28;20100;-35
2022/06/19 00:51:46;;;;;;;6.13;0.95;;;15.60;99.90;;;;;;5045660;28;20025;-35
2022/06/19 00:54:15;;;;;;;22.25;1.90;;;15.60;99.90;;;;;;5040209;28;20020;-33
2022/06/19 00:56:41;;;;;;;7.47;0.95;;;15.70;99.90;;;;;;5044899;28;20064;-32
2022/06/19 00:59:09;;;;;;;3.05;0.73;;;15.70;99.90;;;;;;5044695;28;20060;-35
2022/06/19 01:01:34;;;;;;;4.75;0.95;;;15.80;99.60;;;;;;5043681;28;20025;-36
2022/06/19 01:04:14;;;;;;;9.43;0.90;;;15.90;99.70;;;;;;5046869;28;20038;-35
2022/06/19 01:06:39;;;;;;;2.05;0.75;;;15.90;99.80;;;;;;5056032;28;20032;-35
2022/06/19 01:09:05;;;;;;;3.97;0.88;;;16.00;99.30;;;;;;5051141;28;20025;-31
2022/06/19 01:11:35;;;;;;;4.13;0.82;;;16.10;99.10;;;;;;5049269;28;20036;-32
2022/06/19 01:14:02;;;;;;;2.30;0.63;;;16.10;99.20;;;;;;5037374;28;20033;-28
2022/06/19 01:16:28;;;;;;;0.93;0.55;;;16.10;99.30;;;;;;5045389;28;20074;-36
2022/06/19 01:18:54;;;;;;;1.75;0.40;;;16.10;99.50;;;;;;5054831;28;20385;-37
2022/06/19 01:21:47;;;;;;;5.43;0.70;;;16.10;99.80;;;;;;5039777;28;20025;-37
2022/06/19 01:24:40;;;;;;;5.43;0.90;;;16.20;99.90;;;;;;5034824;28;20067;-36
2022/06/19 01:27:09;;;;;;;2.58;0.52;;;16.20;99.90;;;;;;5044313;28;20037;-32
2022/06/19 01:29:35;;;;;;;4.90;0.50;;;16.20;99.90;;;;;;5035250;28;20085;-37
2022/06/19 01:32:05;;;;;;;4.43;0.85;;;16.20;99.90;;;;;;5034541;28;20025;-28
2022/06/19 01:34:36;;;;;;;11.77;1.00;;;16.20;99.90;;;;;;5034398;28;20033;-39
2022/06/19 01:37:07;;;;;;;6.00;0.63;;;16.30;99.90;;;;;;5047335;28;20044;-36
2022/06/19 01:39:59;;;;;;;6.50;0.70;;;16.20;99.90;;;;;;5038555;28;20025;-37
2022/06/19 01:42:25;;;;;;;2.20;0.50;;;16.20;99.90;;;;;;5054078;28;20045;-39
2022/06/19 01:44:53;;;;;;;4.93;0.60;;;16.10;99.90;;;;;;5053985;28;20041;-37
2022/06/19 01:47:19;;;;;;;4.40;0.60;;;16.00;99.90;;;;;;5049755;28;20114;-36
2022/06/19 01:49:48;;;;;;;2.60;0.40;;;15.90;99.90;;;;;;5037785;28;20078;-36
2022/06/19 01:52:14;;;;;;;2.28;0.50;;;15.80;99.90;;;;;;5054845;28;20025;-42
2022/06/19 01:54:48;;;;;;;1.20;0.25;;;15.70;99.90;;;;;;5052442;28;20380;-37
2022/06/19 01:57:16;;;;;;;3.72;0.50;;;15.70;99.90;;;;;;5034901;28;20038;-40
2022/06/19 01:59:44;;;;;;;3.13;0.40;;;15.70;99.90;;;;;;5034131;28;20049;-37
2022/06/19 02:02:10;;;;;;;;;;;15.70;99.90;;;;;;5042266;28;20504;-37
2022/06/19 02:04:36;;;;;;;6.88;0.68;;;15.70;99.90;;;;;;5052250;28;19909;-37
2022/06/19 02:07:05;;;;;;;2.20;0.85;;;15.70;99.90;;;;;;5050414;28;20025;-36
2022/06/19 02:09:33;;;;;;;7.80;1.83;;;15.70;99.90;;;;;;5044541;28;20049;-37
2022/06/19 02:11:58;;;;;;;3.00;0.45;;;15.70;99.90;;;;;;5034761;28;20026;-37
2022/06/19 02:14:24;;;;;;;1.70;0.40;;;15.70;99.90;;;;;;5036468;28;20489;-39
2022/06/19 02:16:51;;;;;;;7.93;0.57;;;15.70;99.90;;;;;;5051211;28;20021;-36
2022/06/19 02:19:18;;;;;;;4.95;0.30;;;15.70;99.90;;;;;;5035279;28;20469;-36
2022/06/19 02:21:48;;;;;;;3.65;0.68;;;15.70;99.90;;;;;;5046797;28;20478;-37
2022/06/19 02:24:20;;;;;;;2.13;0.75;;;15.70;98.80;;;;;;5033906;28;20488;-36
2022/06/19 02:26:47;;;;;;;3.72;0.60;;;15.70;98.60;;;;;;5034886;28;20029;-36
2022/06/19 02:29:16;;;;;;;2.42;0.50;;;15.80;99.70;;;;;;5033458;28;20037;-36
2022/06/19 02:31:44;;;;;;;5.63;1.38;;;15.80;99.90;;;;;;5034702;28;20485;-36
2022/06/19 02:34:28;;;;;;;9.10;1.27;;;15.80;99.90;;;;;;5034413;28;20013;-35
2022/06/19 02:36:59;;;;;;;7.78;0.85;;;15.90;99.90;;;;;;5046807;28;20025;-35
2022/06/19 02:39:29;;;;;;;9.60;1.67;;;15.90;99.90;;;;;;5037299;28;20074;-32
2022/06/19 02:42:16;;;;;;;8.05;1.25;;;15.90;99.90;;;;;;5053979;28;20358;-41
2022/06/19 02:44:43;;;;;;;6.88;2.03;;;15.90;99.90;;;;;;5048622;28;20028;-36
2022/06/19 02:47:09;;;;;;;5.18;1.23;;;15.80;99.90;;;;;;5034402;28;20516;-35
2022/06/19 02:49:36;;;;;;;8.95;0.98;;;15.80;99.90;;;;;;5033785;28;20541;-38
2022/06/19 02:52:04;;;;;;;8.35;1.15;;;15.80;99.90;;;;;;5041822;28;20023;-38
2022/06/19 02:54:30;;;;;;;8.30;1.15;;;15.80;99.90;;;;;;5052196;28;20024;-37
2022/06/19 02:56:56;;;;;;;9.48;1.48;;;15.80;99.90;;;;;;5044750;28;20021;-27
2022/06/19 02:59:22;;;;;;;10.02;1.38;;;15.90;99.90;;;;;;5050551;28;20028;-34
2022/06/19 03:01:47;;;;;;;18.23;1.90;;;15.90;99.90;;;;;;5043681;28;20053;-31
2022/06/19 03:04:38;;;;;;;9.48;0.95;;;15.90;99.90;;;;;;5037252;28;20067;-31
2022/06/19 03:07:04;;;;;;;4.82;0.98;;;15.90;99.90;;;;;;5032311;28;20025;-35
2022/06/19 03:09:30;;;;;;;6.20;1.00;;;15.80;99.90;;;;;;5037972;28;20029;-34
2022/06/19 03:11:56;;;;;;;7.43;0.80;;;15.90;99.90;;;;;;5041872;28;20025;-33
2022/06/19 03:14:23;;;;;;;4.60;0.93;;;15.90;99.90;;;;;;5041220;28;20424;-32
2022/06/19 03:16:48;;;;;;;16.60;2.08;;;15.90;99.90;;;;;;5033761;28;20432;-30
2022/06/19 03:19:14;;;;;;;7.30;0.75;;;16.10;99.90;;;;;;5034879;28;20017;-34
2022/06/19 03:21:40;;;;;;;10.23;1.77;;;16.10;99.90;;;;;;5032177;28;20481;-30
2022/06/19 03:24:05;;;;;;;6.22;1.25;;;16.10;99.90;;;;;;5047165;28;20025;-28
2022/06/19 03:26:31;;;;;;;4.82;1.25;;;16.10;99.90;;;;;;5047818;28;20047;-30
2022/06/19 03:28:58;;;;;;;10.07;0.77;;;16.10;99.90;;;;;;5049152;28;20091;-33
2022/06/19 03:31:25;;;;;;;12.90;1.08;;;16.10;99.90;;;;;;5040608;28;20029;-30
2022/06/19 03:33:51;;;;;;;11.13;1.90;;;16.10;99.90;;;;;;5032551;28;20564;-31
2022/06/19 03:36:17;;;;;;;17.35;2.47;;;16.10;99.90;;;;;;5052603;28;20477;-34
2022/06/19 03:38:43;;;;;;;12.25;2.28;;;16.10;99.90;;;;;;5044283;28;20541;-35
2022/06/19 03:41:09;;;;;;;7.10;1.33;;;16.10;99.90;;;;;;5032587;28;20100;-33
2022/06/19 03:43:35;;;;;;;3.38;0.70;;;16.20;99.90;;;;;;5051014;28;20378;-37
2022/06/19 03:46:03;;;;;;;4.70;0.85;;;16.10;99.90;;;;;;5051075;28;20039;-33
2022/06/19 03:48:28;;;;;;;3.97;1.25;;;16.10;99.90;;;;;;5053145;28;20036;-29
2022/06/19 03:50:54;;;;;;;9.55;1.10;;;16.10;99.90;;;;;;5040466;28;20025;-31
2022/06/19 03:53:20;;;;;;;4.78;0.70;;;16.10;99.90;;;;;;5032733;28;20040;-34
2022/06/19 03:55:47;;;;;;;6.38;1.60;;;16.10;99.90;;;;;;5033376;28;20113;-28
2022/06/19 03:58:13;;;;;;;9.23;1.45;;;16.00;99.90;;;;;;5037352;28;20408;-28
2022/06/19 04:00:39;;;;;;;5.38;1.00;;;15.90;99.90;;;;;;5032869;28;20485;-29
2022/06/19 04:03:05;;;;;;;7.90;1.05;;;16.00;99.90;;;;;;5045950;28;20025;-28
2022/06/19 04:05:31;;;;;;;3.50;0.90;;;16.00;99.90;;;;;;5041835;28;20482;-32
2022/06/19 04:07:57;;;;;;;6.57;1.80;;;16.00;99.90;;;;;;5033291;28;20029;-29
2022/06/19 04:10:23;;;;;;;3.88;0.93;;;16.10;99.90;;;;;;5038411;28;20103;-29
2022/06/19 04:12:49;;;;;;;7.57;0.90;;;16.20;99.90;;;;;;5033056;28;20063;-37
2022/06/19 04:15:15;;;;;;;14.52;1.20;;;16.20;99.90;;;;;;5032973;28;20486;-34
2022/06/19 04:17:41;;;;;;;3.33;0.70;;;16.30;99.90;;;;;;5032766;28;20033;-32
2022/06/19 04:20:08;;;;;;;3.15;0.70;;;16.30;99.90;;;;;;5032292;28;20052;-31
2022/06/19 04:22:37;;;;;;;6.03;1.20;;;16.10;99.90;;;;;;5031926;28;20029;-29
2022/06/19 04:25:05;;;;;;;1.60;0.55;;;15.80;99.90;;;;;;5047210;28;20650;-30
2022/06/19 04:27:37;;;;;;;8.13;0.95;;;15.60;99.90;;;;;;5051968;28;20163;-31
2022/06/19 04:30:03;;;;;;;4.25;0.93;;;15.30;99.90;;;;;;5049128;28;20042;-32
2022/06/19 04:32:30;;;;;;;5.00;1.17;;;15.10;99.90;;;;;;5038335;28;20090;-30
2022/06/19 04:34:56;;;;;;;2.28;0.85;;;15.00;99.90;;;;;;5041954;28;20025;-30
2022/06/19 04:37:22;;;;;;;6.55;1.00;;;15.00;99.90;;;;;;5036326;28;20091;-29
2022/06/19 04:39:48;;;;;;;8.50;1.55;;;14.90;99.90;;;;;;5050270;28;20446;-30
2022/06/19 04:42:13;;;;;;;5.78;1.35;;;14.80;99.90;;;;;;5049369;28;20036;-34
2022/06/19 04:44:39;;;;;;;8.68;1.13;;;14.50;99.90;;;;;;5047036;28;20021;-30
2022/06/19 04:47:05;;;;;;;6.13;0.93;;;14.40;99.90;;;;;;5049610;28;20029;-47
2022/06/19 04:49:30;;;;;;;10.25;1.23;;;14.40;99.90;;;;;;5036936;28;20501;-37
2022/06/19 04:51:56;;;;;;;10.25;1.10;;;14.40;99.90;;;;;;5037812;28;20425;-37
2022/06/19 04:54:22;;;;;;;5.15;0.85;;;14.40;99.90;;;;;;5046387;28;20033;-38
2022/06/19 04:56:47;;;;;;;3.22;0.77;;;14.50;99.90;;;;;;5051268;28;20025;-29
2022/06/19 04:59:13;;;;;;;6.32;1.13;;;14.50;99.90;;;;;;5056111;28;20025;-30
2022/06/19 05:01:39;;;;;;;7.45;1.15;;;14.60;99.90;;;;;;5041307;28;20051;-33
2022/06/19 05:04:08;;;;;;;4.53;0.85;;;14.70;99.90;;;;;;5048700;28;20029;-30
2022/06/19 05:06:35;;;;;;;4.72;1.23;;;14.70;99.90;;;;;;5035239;28;20516;-32
2022/06/19 05:09:01;;;;;;;4.82;0.75;;;14.80;99.90;;;;;;5035966;28;20128;-35
2022/06/19 05:11:30;;;;;;;8.88;1.35;;;14.80;99.90;;;;;;5050405;28;20026;-36
2022/06/19 05:13:55;;;;;;;7.93;1.98;;;14.80;99.90;;;;;;5040193;28;20488;-38
2022/06/19 05:16:23;;;;;;;9.00;1.20;;;14.90;99.90;;;;;;5054994;28;20056;-29
2022/06/19 05:18:51;;;;;;;4.60;0.90;;;15.00;99.90;;;;;;5040710;28;20473;-32
2022/06/19 05:21:17;;;;;;;;;;;15.00;99.90;;;;;;5036197;28;20452;-48
2022/06/19 05:23:46;;;;;;;6.10;0.70;;;15.00;99.90;;;;;;5040830;28;19920;-34
2022/06/19 05:26:25;;;;;;;8.25;1.30;;;15.00;99.90;;;;;;5042168;28;20484;-31
2022/06/19 05:28:51;;;;;;;17.40;1.77;;;15.00;99.90;;;;;;5055384;28;20500;-35
2022/06/19 05:31:17;;;;;;;7.88;1.00;;;15.00;99.90;;;;;;5049521;28;20033;-32
2022/06/19 05:33:44;;;;;;;5.47;1.17;;;15.00;99.90;;;;;;5034045;28;20041;-46
2022/06/19 05:36:10;;;;;;;7.72;0.90;;;15.00;99.90;;;;;;5035592;28;20033;-36
2022/06/19 05:38:54;;;;;;;10.30;1.30;;;15.00;99.90;;;;;;5041011;28;20065;-37
2022/06/19 05:41:20;;;;;;;8.93;1.27;;;15.10;99.90;;;;;;5043614;28;20112;-36
2022/06/19 05:43:49;;;;;;;4.20;1.00;;;15.10;99.90;;;;;;5034928;28;20592;-36
2022/06/19 05:46:16;;;;;;;8.98;1.38;;;15.10;99.90;;;;;;5036447;28;20558;-34
2022/06/19 05:48:43;;;;;;;4.53;1.15;;;15.10;99.90;;;;;;5038516;28;20086;-36
2022/06/19 05:51:11;;;;;;;13.43;1.80;;;15.10;99.90;;;;;;5050302;28;20028;-29
2022/06/19 05:53:40;;;;;;;5.63;1.13;;;15.10;99.90;;;;;;5034306;28;20021;-31
2022/06/19 05:56:07;;;;;;;6.75;2.10;;;15.00;99.90;;;;;;5044410;28;20462;-30
2022/06/19 05:58:33;;;;;;;8.95;1.08;;;15.10;99.90;;;;;;5046528;28;20024;-32
2022/06/19 06:01:00;;;;;;;9.35;1.20;;;15.10;99.90;;;;;;5041668;28;20075;-28
2022/06/19 06:03:26;;;;;;;13.15;2.30;;;15.00;99.90;;;;;;5041618;28;20056;-37
2022/06/19 06:05:52;;;;;;;8.20;0.95;;;15.00;99.90;;;;;;5042986;28;20039;-38
2022/06/19 06:08:19;;;;;;;9.35;1.35;;;14.90;99.90;;;;;;5053954;28;20429;-37
2022/06/19 06:10:47;;;;;;;10.35;1.35;;;14.90;99.90;;;;;;5050172;28;20032;-37
2022/06/19 06:13:13;;;;;;;15.35;1.92;;;15.00;99.90;;;;;;5046389;28;20044;-39
2022/06/19 06:15:38;;;;;;;10.25;1.48;;;14.90;99.90;;;;;;5053308;28;20025;-48
2022/06/19 06:18:04;;;;;;;7.05;1.70;;;14.90;99.90;;;;;;5052362;28;20029;-37
2022/06/19 06:20:30;;;;;;;16.85;1.75;;;15.00;99.90;;;;;;5034810;28;20036;-42
2022/06/19 06:22:56;;;;;;;5.30;1.00;;;15.00;99.90;;;;;;5036613;28;20508;-36
2022/06/19 06:25:23;;;;;;;7.47;1.30;;;15.00;99.90;;;;;;5049665;28;20017;-37
2022/06/19 06:28:07;;;;;;;4.67;1.23;;;15.00;99.90;;;;;;5054033;28;20362;-37
2022/06/19 06:30:33;;;;;;;12.13;1.25;;;15.00;99.90;;;;;;5053031;28;20045;-34
2022/06/19 06:32:59;;;;;;;7.95;1.40;;;15.00;99.90;;;;;;5037878;28;20038;-36
2022/06/19 06:35:24;;;;;;;12.25;1.27;;;15.00;99.90;;;;;;5040134;28;20029;-36
2022/06/19 06:37:50;;;;;;;8.75;1.30;;;14.90;99.90;;;;;;5048397;28;20031;-30
2022/06/19 06:40:34;;;;;;;9.70;1.38;;;15.00;99.90;;;;;;5034298;28;20021;-29
2022/06/19 06:43:00;;;;;;;8.20;1.15;;;15.00;99.90;;;;;;5033963;28;20183;-32
2022/06/19 06:45:25;;;;;;;7.15;1.20;;;14.90;99.90;;;;;;5045043;28;20032;-33
2022/06/19 06:47:51;;;;;;;4.93;1.25;;;14.90;99.90;;;;;;5035342;28;20030;-38
2022/06/19 06:50:17;;;;;;;7.00;1.65;;;14.90;99.90;;;;;;5035000;28;20155;-35
2022/06/19 06:52:43;;;;;;;5.97;1.20;;;14.90;99.90;;;;;;5040619;28;20041;-34
2022/06/19 06:55:09;;;;;;;6.53;1.55;;;14.90;99.90;;;;;;5040450;28;20541;-32
2022/06/19 06:57:35;;;;;;;15.90;1.60;;;14.90;99.90;;;;;;5046037;28;20017;-32
2022/06/19 07:00:00;;;;;;;7.88;0.98;;;14.90;99.90;;;;;;5046753;28;20409;-31
2022/06/19 07:02:26;;;;;;;5.50;1.40;;;14.90;99.90;;;;;;5043854;28;20028;-35
2022/06/19 07:04:52;;;;;;;5.38;1.35;;;14.90;99.90;;;;;;5036754;28;20056;-35
2022/06/19 07:07:18;;;;;;;10.25;1.38;;;14.90;99.90;;;;;;5034083;28;20512;-31
2022/06/19 07:09:43;;;;;;;2.55;1.48;;;14.80;99.90;;;;;;5036465;28;20025;-33
2022/06/19 07:12:10;;;;;;;8.60;1.00;;;14.80;99.90;;;;;;5041062;28;20035;-29
2022/06/19 07:14:36;;;;;;;12.47;1.60;;;14.80;99.90;;;;;;5034511;28;20500;-32
2022/06/19 07:17:01;;;;;;;10.63;1.50;;;14.70;99.90;;;;;;5038007;28;20025;-33
2022/06/19 07:19:27;;;;;;;10.05;1.83;;;14.70;99.90;;;;;;5043415;28;20055;-34
2022/06/19 07:21:53;;;;;;;8.43;1.25;;;14.70;99.90;;;;;;5040201;28;20021;-29
2022/06/19 07:24:19;;;;;;;7.15;1.27;;;14.80;99.90;;;;;;5034016;28;20494;-31
2022/06/19 07:26:45;;;;;;;9.15;1.45;;;14.80;99.90;;;;;;5038609;28;20056;-31
2022/06/19 07:29:11;;;;;;;6.20;1.05;;;14.80;99.90;;;;;;5040824;28;20136;-28
2022/06/19 07:31:37;;;;;;;14.23;1.88;;;14.80;99.90;;;;;;5044659;28;20043;-31
2022/06/19 07:34:03;;;;;;;6.55;1.30;;;14.80;99.90;;;;;;5042640;28;20095;-30
2022/06/19 07:36:29;;;;;;;5.80;1.23;;;14.90;99.90;;;;;;5034786;28;20024;-36
2022/06/19 07:38:55;;;;;;;8.30;1.30;;;14.90;99.90;;;;;;5035640;28;20021;-31
2022/06/19 07:41:20;;;;;;;4.47;0.93;;;15.00;99.90;;;;;;5051365;28;20067;-31
2022/06/19 07:43:46;;;;;;;4.38;0.85;;;15.00;99.90;;;;;;5043083;28;20214;-29
2022/06/19 07:46:13;;;;;;;8.75;1.10;;;15.00;99.90;;;;;;5048236;28;20544;-33
2022/06/19 07:51:26;;;;;;;9.82;1.65;;;15.00;99.90;;;;;;5037816;28;20067;-36
2022/06/19 07:53:51;;;;;;;7.78;1.40;;;15.00;99.90;;;;;;5039798;28;20515;-34
2022/06/19 07:56:17;;;;;;;8.48;1.73;;;15.00;99.90;;;;;;5033777;28;20040;-33
2022/06/19 07:58:43;;;;;;;7.60;1.23;;;14.90;99.90;;;;;;5036420;28;20077;-28
2022/06/19 08:01:09;;;;;;;12.52;1.67;;;14.90;99.90;;;;;;5036154;28;20044;-47
2022/06/19 08:03:35;;;;;;;4.20;1.23;;;14.80;99.90;;;;;;5032006;28;20021;-36
2022/06/19 08:06:01;;;;;;;4.40;0.95;;;14.80;99.90;;;;;;5043897;28;20405;-36
2022/06/19 08:08:29;;;;;;;9.43;1.08;;;14.70;99.90;;;;;;5037408;28;20017;-36
2022/06/19 08:10:56;;;;;;;10.13;1.77;;;14.70;99.90;;;;;;5037665;28;20106;-37
2022/06/19 08:13:24;;;;;;;4.53;1.35;;;14.70;99.90;;;;;;5035262;28;20021;-36
2022/06/19 08:15:52;;;;;;;7.78;1.80;;;14.60;99.90;;;;;;5043343;28;20047;-36
2022/06/19 08:18:19;;;;;;;7.13;1.40;;;14.60;99.90;;;;;;5040970;28;20025;-36
2022/06/19 08:20:45;;;;;;;10.68;1.30;;;14.50;99.90;;;;;;5041314;28;20029;-37
2022/06/19 08:23:11;;;;;;;4.10;1.13;;;14.50;99.90;;;;;;5037056;28;20448;-38
2022/06/19 08:25:37;;;;;;;8.25;1.35;;;14.40;99.90;;;;;;5047380;28;20021;-36
2022/06/19 08:28:03;;;;;;;4.35;1.38;;;14.50;99.90;;;;;;5041637;28;20401;-36
2022/06/19 08:30:34;;;;;;;7.18;1.45;;;14.50;99.90;;;;;;5046405;28;20036;-39
2022/06/19 08:33:00;;;;;;;2.88;1.00;;;14.60;99.90;;;;;;5048702;28;20365;-36
2022/06/19 08:35:29;;;;;;;8.68;1.38;;;14.60;99.90;;;;;;5034951;28;20515;-33
2022/06/19 08:38:00;;;;;;;11.60;1.70;;;14.60;99.90;;;;;;5037666;28;20358;-28
2022/06/19 08:40:47;;;;;;;11.32;1.23;;;14.70;99.90;;;;;;5036275;28;20504;-32
2022/06/19 08:43:32;;;;;;;9.50;1.42;;;14.70;99.90;;;;;;5035437;28;20116;-37
2022/06/19 08:45:57;;;;;;;2.30;1.10;;;14.80;99.90;;;;;;5038733;28;20021;-28
2022/06/19 08:48:37;;;;;;;8.98;1.40;;;14.90;99.90;;;;;;5042729;28;20052;-28
2022/06/19 08:51:11;;;;;;;10.65;1.20;;;15.00;99.90;;;;;;5039101;28;20378;-30
2022/06/19 08:53:58;;;;;;;8.68;1.50;;;15.10;99.90;;;;;;5043708;28;20090;-32
2022/06/19 08:56:47;;;;;;;2.97;1.30;;;15.20;99.90;;;;;;5047601;28;20025;-32
2022/06/19 08:59:39;;;;;;;6.78;1.58;;;15.20;99.90;;;;;;5040723;28;20082;-35
2022/06/19 09:02:08;;;;;;;8.45;2.00;;;15.20;99.90;;;;;;5034618;28;20025;-30
2022/06/19 09:07:49;;;;;;;4.28;1.10;;;15.30;99.90;;;;;;5036255;28;20386;-30
2022/06/19 09:10:31;;;;;;;7.63;1.48;;;15.20;99.90;;;;;;5036115;28;20493;-31
2022/06/19 09:13:34;;;;;;;3.60;1.30;;;15.30;99.90;;;;;;5036343;28;20103;-28
2022/06/19 09:16:24;;;;;;;5.55;1.63;;;15.30;99.90;;;;;;5039882;28;20152;-30
2022/06/19 09:19:04;;;;;;;11.02;1.58;;;15.30;99.90;;;;;;5045950;28;20079;-32
2022/06/19 09:21:47;;;;;;;17.02;1.60;;;15.40;99.90;;;;;;5035875;28;20041;-32
2022/06/19 09:24:45;;;;;;;7.85;1.08;;;15.50;99.90;;;;;;5049016;28;20083;-42
2022/06/19 09:27:13;;;;;;;9.15;1.52;;;15.60;99.90;;;;;;5033617;28;20107;-29
2022/06/19 09:29:51;;;;;;;5.07;0.85;;;15.70;99.90;;;;;;5045558;28;20099;-33
2022/06/19 09:32:28;;;;;;;10.95;1.73;;;15.70;99.90;;;;;;5047601;28;20031;-33
2022/06/19 09:35:03;;;;;;;12.23;1.97;;;15.80;99.90;;;;;;5035660;28;20037;-32
2022/06/19 09:37:46;;;;;;;8.30;1.67;;;15.90;99.90;;;;;;5050220;28;20029;-29
2022/06/19 09:40:26;;;;;;;8.95;1.08;;;15.80;99.90;;;;;;5054658;28;20397;-29
2022/06/19 09:43:13;;;;;;;6.38;1.08;;;15.90;99.90;;;;;;5035959;28;20040;-29
2022/06/19 09:45:47;;;;;;;6.88;1.20;;;16.20;99.90;;;;;;5054155;28;20040;-30
2022/06/19 09:48:21;;;;;;;7.55;1.10;;;16.40;99.90;;;;;;5052447;28;20563;-29
2022/06/19 09:50:57;;;;;;;6.35;0.98;;;16.30;99.90;;;;;;5055131;28;20033;-31
2022/06/19 09:53:32;;;;;;;6.93;1.23;;;16.30;99.90;;;;;;5048735;28;20071;-30
2022/06/19 09:56:15;;;;;;;4.07;1.27;;;16.00;99.90;;;;;;5032985;28;20041;-34
2022/06/19 09:58:47;;;;;;;5.40;1.55;;;15.90;99.90;;;;;;5036968;28;20040;-33
2022/06/19 10:01:14;;;;;;;4.13;0.88;;;16.00;99.90;;;;;;5046978;28;20036;-36
2022/06/19 10:03:55;;;;;;;8.50;1.20;;;16.20;99.90;;;;;;5042029;28;20029;-29
2022/06/19 10:06:40;;;;;;;3.88;1.33;;;16.30;99.90;;;;;;5042671;28;20481;-32
2022/06/19 10:09:29;;;;;;;3.42;0.70;;;16.40;99.90;;;;;;5042840;28;20455;-38
2022/06/19 10:11:59;;;;;;;14.57;1.58;;;16.40;99.90;;;;;;5041852;28;20036;-36
2022/06/19 10:14:27;;;;;;;17.73;2.65;;;16.20;99.90;;;;;;5054483;28;20036;-36
2022/06/19 10:17:16;;;;;;;12.20;1.45;;;16.10;99.90;;;;;;5045077;28;20499;-37
2022/06/19 10:20:00;;;;;;;12.43;1.83;;;15.90;99.90;;;;;;5045598;28;20120;-37
2022/06/19 10:22:38;;;;;;;7.07;1.10;;;15.70;99.90;;;;;;5040422;28;20041;-37
2022/06/19 10:25:04;;;;;;;;;;;15.60;99.90;;;;;;5036305;28;20116;-35
2022/06/19 10:27:43;;;;;;;6.40;1.48;;;15.60;99.90;;;;;;5033798;28;20435;-37
2022/06/19 10:33:31;;;;;;;7.93;0.98;;;15.60;99.90;;;;;;5046182;28;20051;-44
2022/06/19 10:36:12;;;;;;;9.60;1.33;;;15.50;99.90;;;;;;5033563;28;20046;-45
2022/06/19 10:39:01;;;;;;;7.05;1.15;;;15.50;99.90;;;;;;5049012;28;20025;-38
2022/06/19 10:42:01;;;;;;;5.13;0.80;;;15.40;99.90;;;;;;5035213;28;20112;-38
2022/06/19 10:44:40;;;;;;;0.80;0.75;;;15.40;99.90;;;;;;5045401;28;20037;-36
2022/06/19 10:47:11;;;;;;;14.30;1.00;;;15.40;99.90;;;;;;5047735;28;20039;-38
2022/06/19 10:50:10;;;;;;;5.45;1.35;;;15.40;99.90;;;;;;5045254;28;20480;-32
2022/06/19 10:52:53;;;;;;;10.57;1.10;;;15.50;99.90;;;;;;5045551;28;20029;-37
2022/06/19 10:55:44;;;;;;;5.25;1.08;;;15.50;99.90;;;;;;5039323;28;20465;-36
2022/06/19 10:58:19;;;;;;;9.68;1.20;;;15.60;99.90;;;;;;5034739;28;20029;-37
2022/06/19 11:00:50;;;;;;;2.90;0.82;;;15.60;99.90;;;;;;5042228;28;20108;-36
2022/06/19 11:06:45;;;;;;;10.13;1.50;;;15.60;99.90;;;;;;5042909;28;20405;-35
2022/06/19 11:09:20;;;;;;;5.55;1.50;;;15.80;99.90;;;;;;5044045;28;20033;-37
2022/06/19 11:11:50;;;;;;;12.02;2.45;;;16.10;99.90;;;;;;5051606;28;20503;-37
2022/06/19 11:14:43;;;;;;;6.25;0.95;;;16.40;99.90;;;;;;5040531;28;20025;-35
2022/06/19 11:17:27;;;;;;;7.55;1.15;;;16.70;99.90;;;;;;5046406;28;20104;-38
2022/06/19 11:19:53;;;;;;;7.78;1.65;;;16.80;99.90;;;;;;5053811;28;20491;-38
2022/06/19 11:22:33;;;;;;;2.55;1.05;;;16.80;99.90;;;;;;5039882;28;20120;-37
2022/06/19 11:25:16;;;;;;;4.70;0.85;;;16.90;99.90;;;;;;5034025;28;20493;-44
2022/06/19 11:27:51;;;;;;;8.98;1.17;;;17.00;99.90;;;;;;5033921;28;20065;-37
2022/06/19 11:30:29;;;;;;;6.97;0.85;;;17.10;99.90;;;;;;5052332;28;20401;-47
2022/06/19 11:32:56;;;;;;;5.80;0.98;;;17.20;99.90;;;;;;5053410;28;20021;-39
2022/06/19 11:35:22;;;;;;;8.45;1.85;;;17.40;99.90;;;;;;5038150;28;20033;-38
2022/06/19 11:37:56;;;;;;;3.13;0.60;;;17.40;99.90;;;;;;5033552;28;20028;-36
2022/06/19 11:40:34;;;;;;;5.53;0.80;;;17.50;99.90;;;;;;5039636;28;20481;-37
2022/06/19 11:43:01;;;;;;;3.22;0.75;;;17.40;99.90;;;;;;5046056;28;20051;-36
2022/06/19 11:45:36;;;;;;;9.43;0.95;;;17.30;99.90;;;;;;5039777;28;20037;-37
2022/06/19 11:48:07;;;;;;;19.05;1.15;;;17.00;99.90;;;;;;5052063;28;20480;-38
2022/06/19 11:50:32;;;;;;;2.70;0.75;;;16.80;99.90;;;;;;5037266;28;20029;-37
2022/06/19 11:53:03;;;;;;;5.30;1.30;;;16.90;99.90;;;;;;5040614;28;20033;-32
2022/06/19 11:55:48;;;;;;;5.82;0.60;;;16.90;99.90;;;;;;5045732;28;20024;-30
2022/06/19 11:58:16;;;;;;;1.58;1.05;;;16.80;99.90;;;;;;5048639;28;20036;-33
2022/06/19 12:00:44;;;;;;;5.35;0.95;;;16.70;99.90;;;;;;5047629;28;20033;-31
2022/06/19 12:03:26;;;;;;;4.78;1.00;;;16.60;99.90;;;;;;5035332;28;20068;-35
2022/06/19 12:06:06;;;;;;;5.05;1.10;;;16.50;99.90;;;;;;5049641;28;20119;-33
2022/06/19 12:08:41;;;;;;;4.20;0.98;;;16.30;99.90;;;;;;5051062;28;20029;-30
2022/06/19 12:11:08;;;;;;;1.95;0.63;;;16.30;99.90;;;;;;5043793;28;20103;-32
2022/06/19 12:13:37;;;;;;;2.58;1.00;;;16.30;99.90;;;;;;5043491;28;20025;-35
2022/06/19 12:16:23;;;;;;;3.60;0.80;;;16.40;99.90;;;;;;5033998;28;20041;-31
2022/06/19 12:18:50;;;;;;;5.28;0.80;;;16.50;99.90;;;;;;5051072;28;20026;-31
2022/06/19 12:21:21;;;;;;;6.78;0.70;;;16.70;99.90;;;;;;5037702;28;20032;-28
2022/06/19 12:24:01;;;;;;;5.35;0.77;;;16.90;99.90;;;;;;5042148;28;20029;-32
2022/06/19 12:26:48;;;;;;;5.93;0.95;;;17.00;99.90;;;;;;5033641;28;20430;-30
2022/06/19 12:29:24;;;;;;;2.57;0.60;;;17.00;99.90;;;;;;5052710;28;20518;-37
2022/06/19 12:31:51;;;;;;;2.05;0.73;;;17.20;99.90;;;;;;5051744;28;20520;-30
2022/06/19 12:34:38;;;;;;;1.90;0.40;;;17.50;99.90;;;;;;5039553;28;20022;-31
2022/06/19 12:37:15;;;;;;;;;;;17.60;99.90;;;;;;5051880;28;20477;-31
2022/06/19 12:39:42;;;;;;;3.25;0.95;;;17.60;99.90;;;;;;5036496;28;19975;-48
2022/06/19 12:42:23;;;;;;;5.78;0.90;;;17.50;99.90;;;;;;5036475;28;20021;-36
2022/06/19 12:45:28;;;;;;;2.63;0.68;;;17.40;99.90;;;;;;5039953;28;20047;-37
2022/06/19 12:47:56;;;;;;;5.10;0.75;;;17.50;99.90;;;;;;5034798;28;20496;-37
2022/06/19 12:50:24;;;;;;;3.75;0.85;;;17.80;99.90;;;;;;5049422;28;20055;-38
2022/06/19 12:52:50;;;;;;;2.20;1.25;;;18.30;99.90;;;;;;5047748;28;20580;-37
2022/06/19 12:55:24;;;;;;;4.47;1.13;;;18.60;99.90;;;;;;5049007;28;20025;-37
2022/06/19 12:57:59;;;;;;;3.92;1.08;;;18.80;99.90;;;;;;5052971;28;20055;-38
2022/06/19 13:00:42;;;;;;;4.95;0.60;;;18.90;99.90;;;;;;5046185;28;20101;-38
2022/06/19 13:03:27;;;;;;;3.08;0.70;;;19.00;99.90;;;;;;5036785;28;20501;-38
2022/06/19 13:06:06;;;;;;;4.32;0.75;;;18.90;99.90;;;;;;5036067;28;20095;-37
2022/06/19 13:08:55;;;;;;;3.47;0.93;;;19.00;99.90;;;;;;5035623;28;20428;-34
2022/06/19 13:11:47;;;;;;;4.75;0.82;;;19.00;99.90;;;;;;5040239;28;20025;-38
2022/06/19 13:14:47;;;;;;;3.28;0.50;;;18.70;99.90;;;;;;5038204;28;20550;-41
2022/06/19 13:17:31;;;;;;;3.70;1.20;;;18.50;99.90;;;;;;5056171;28;20497;-38
2022/06/19 13:20:18;;;;;;;2.22;0.90;;;18.50;99.90;;;;;;5049635;28;20492;-38
2022/06/19 13:23:02;;;;;;;2.53;1.00;;;18.60;99.90;;;;;;5047426;28;20094;-35